Terminal Aerodrome Forecast
Issued by NWS

Home | Current Version | Previous Version | Text Only | Print | Product List | Glossary On
Versions: 1 2 3 4 5 6 7 8 9 10 11 12
415
FTUS42 KTBW 291122
TAFPGD
TAF
KPGD 291122Z 2912/3012 VRB04KT P6SM FEW250
     FM291500 16006KT P6SM FEW030 SCT250
     FM291800 25008KT P6SM VCTS SCT040CB SCT250
     FM300200 VRB03KT P6SM FEW250=

USA.gov is the U.S. government's official web portal to all federal, state and local government web resources and services.